Home   Weather   Germany   Achern   Past weeks
Flag for Germany

Past Weather in Achern, Baden-Württemberg, Germany — Yesterday and Last 2 Weeks

Currently: 52 °F. Clear. (Weather station: Karlsruhe - Baden Wurttemberg, Germany). See more current weather

Past Weather in Achern — Graph

°F

Achern Temperature Yesterday

Maximum temperature yesterday: 59 °F (at 4:20 pm)
Minimum temperature yesterday: 28 °F (at 6:50 am)
Average temperature yesterday: 42 °F

High & Low Weather Summary for the Past Weeks

 TemperatureHumidityPressure
High68 °F (Feb 24, 2:50 pm)100% (Feb 18, 12:20 am)30.63 "Hg (Feb 18, 12:20 am)
Low28 °F (Feb 18, 5:20 am)35% (Feb 25, 4:20 pm)29.86 "Hg (Feb 18, 5:20 pm)
Average45 °F77%30.30 "Hg
* Reported Feb 16 6:20 pm — Mar 3 6:20 pm, Achern. Weather by CustomWeather, © 2021

Note: Actual official high and low records may vary slightly from our data, if they occured in-between our weather recording intervals... More about our weather records

Achern Weather History for the Previous 24 Hours

Scroll right to see more
 ConditionsComfort  
Time TempWeatherWind HumidityBarometerVisibility
6:20 pm
Wed, Mar 3
50 °FClear.3 mph71%30.33 "Hg10 mi
5:50 pm52 °FSunny.5 mph67%30.33 "Hg10 mi
5:20 pm54 °FSunny.6 mph63%30.33 "Hg10 mi
4:50 pm54 °FPassing clouds.3 mph63%30.36 "HgN/A
4:20 pm54 °FSunny.3 mph63%30.36 "Hg10 mi
3:50 pm55 °FPassing clouds.3 mph59%30.36 "HgN/A
3:20 pm55 °FPassing clouds.3 mph59%30.36 "HgN/A
2:50 pm54 °FPassing clouds.3 mph58%30.36 "HgN/A
2:20 pm54 °FPassing clouds.3 mph58%30.39 "HgN/A
1:50 pm54 °FPassing clouds.3 mph58%30.39 "HgN/A
1:20 pm52 °FPassing clouds.6 mph62%30.42 "HgN/A
12:50 pm50 °FSunny.2 mph67%30.42 "Hg10 mi
12:20 pm48 °FSunny.2 mph71%30.42 "Hg10 mi
11:50 am46 °FPassing clouds.5 mph76%30.42 "HgN/A
11:20 am46 °FSunny.2 mph76%30.42 "Hg10 mi
10:50 am43 °FSunny.2 mph81%30.42 "Hg10 mi
10:20 am43 °FSunny.3 mph81%30.42 "Hg10 mi
9:50 am41 °FSunny.2 mph87%30.42 "Hg10 mi
9:20 am39 °FSunny.1 mph87%30.45 "Hg10 mi
8:50 am37 °FClear.2 mph87%30.45 "Hg6 mi
8:20 am36 °FClear.3 mph87%30.45 "Hg5 mi
7:50 am34 °FClear.1 mph93%30.45 "Hg4 mi
7:20 am34 °FSunny.1 mph93%30.42 "Hg10 mi
6:50 am36 °FClear.2 mph93%30.42 "Hg10 mi
6:20 am36 °FClear.2 mph87%30.42 "Hg10 mi
5:50 am36 °FClear.2 mph87%30.45 "Hg10 mi
5:20 am36 °FClear.2 mph93%30.42 "Hg10 mi
4:50 am36 °FPassing clouds.3 mph93%30.42 "HgN/A
4:20 am34 °FChilly.3 mph93%30.42 "HgN/A
3:50 am34 °FChilly.2 mph93%30.42 "HgN/A
3:20 am34 °FChilly.2 mph93%30.42 "HgN/A
2:50 am36 °FChilly.1 mph87%30.42 "HgN/A
2:20 am36 °FChilly.1 mph87%30.42 "Hg6 mi
1:50 am36 °FChilly.No wind87%30.45 "HgN/A
1:20 am36 °FChilly.1 mph87%30.45 "HgN/A
12:50 am36 °FPassing clouds.2 mph87%30.45 "HgN/A
12:20 am36 °FChilly.No wind87%30.45 "HgN/A
11:50 pm
Tue, Mar 2
37 °FChilly.1 mph87%30.45 "HgN/A
11:20 pm37 °FPassing clouds.3 mph81%30.45 "HgN/A
10:50 pm37 °FClear.No wind81%30.45 "Hg10 mi
10:20 pm37 °FClear.1 mph87%30.42 "Hg10 mi
9:50 pm41 °FClear.1 mph70%30.42 "Hg10 mi
9:20 pm41 °FClear.No wind70%30.42 "Hg10 mi
8:50 pm43 °FClear.2 mph71%30.42 "Hg10 mi
8:20 pm43 °FClear.No wind66%30.42 "Hg10 mi
7:50 pm46 °FClear.5 mph62%30.42 "Hg10 mi
7:20 pm48 °FClear.2 mph58%30.42 "Hg10 mi
Weather by CustomWeather, © 2021

See weather overview